sensor_id;sensor_type;location;lat;lon;timestamp;pressure;altitude;pressure_sealevel;temperature
39959;BMP280;25639;53.634;9.880;2023-02-20T00:00:09;150980.94;;;-5.63
39959;BMP280;25639;53.634;9.880;2023-02-20T00:02:40;150987.22;;;-5.60
39959;BMP280;25639;53.634;9.880;2023-02-20T00:05:05;150973.38;;;-5.66
39959;BMP280;25639;53.634;9.880;2023-02-20T00:07:30;150954.47;;;-5.73
39959;BMP280;25639;53.634;9.880;2023-02-20T00:09:56;150969.59;;;-5.67
39959;BMP280;25639;53.634;9.880;2023-02-20T00:12:21;150963.31;;;-5.70
39959;BMP280;25639;53.634;9.880;2023-02-20T00:14:46;150974.63;;;-5.65
39959;BMP280;25639;53.634;9.880;2023-02-20T00:17:11;150963.31;;;-5.70
39959;BMP280;25639;53.634;9.880;2023-02-20T00:19:36;150955.72;;;-5.73
39959;BMP280;25639;53.634;9.880;2023-02-20T00:22:02;150949.44;;;-5.76
39959;BMP280;25639;53.634;9.880;2023-02-20T00:24:27;150954.47;;;-5.73
39959;BMP280;25639;53.634;9.880;2023-02-20T00:26:52;150962.06;;;-5.70
39959;BMP280;25639;53.634;9.880;2023-02-20T00:29:21;150964.56;;;-5.69
39959;BMP280;25639;53.634;9.880;2023-02-20T00:31:55;150963.31;;;-5.70
39959;BMP280;25639;53.634;9.880;2023-02-20T00:34:22;150936.84;;;-5.81
39959;BMP280;25639;53.634;9.880;2023-02-20T00:36:47;150938.09;;;-5.80
39959;BMP280;25639;53.634;9.880;2023-02-20T00:39:13;150953.25;;;-5.74
39959;BMP280;25639;53.634;9.880;2023-02-20T00:41:39;150977.16;;;-5.64
39959;BMP280;25639;53.634;9.880;2023-02-20T00:44:04;150978.41;;;-5.64
39959;BMP280;25639;53.634;9.880;2023-02-20T00:46:30;150953.25;;;-5.74
39959;BMP280;25639;53.634;9.880;2023-02-20T00:48:55;150974.63;;;-5.65
39959;BMP280;25639;53.634;9.880;2023-02-20T00:51:20;150972.13;;;-5.66
39959;BMP280;25639;53.634;9.880;2023-02-20T00:53:46;150982.19;;;-5.62
39959;BMP280;25639;53.634;9.880;2023-02-20T00:56:11;150980.94;;;-5.63
39959;BMP280;25639;53.634;9.880;2023-02-20T00:58:36;150963.31;;;-5.70
39959;BMP280;25639;53.634;9.880;2023-02-20T01:01:02;150977.16;;;-5.64
39959;BMP280;25639;53.634;9.880;2023-02-20T01:03:27;150977.16;;;-5.64
39959;BMP280;25639;53.634;9.880;2023-02-20T01:05:52;150985.97;;;-5.61
39959;BMP280;25639;53.634;9.880;2023-02-20T01:08:17;150994.81;;;-5.57
39959;BMP280;25639;53.634;9.880;2023-02-20T01:10:42;150984.75;;;-5.61
39959;BMP280;25639;53.634;9.880;2023-02-20T01:13:08;150993.56;;;-5.58
39959;BMP280;25639;53.634;9.880;2023-02-20T01:15:33;150992.25;;;-5.58
39959;BMP280;25639;53.634;9.880;2023-02-20T01:17:58;151009.91;;;-5.51
39959;BMP280;25639;53.634;9.880;2023-02-20T01:20:24;150993.56;;;-5.58
39959;BMP280;25639;53.634;9.880;2023-02-20T01:22:49;151001.09;;;-5.55
39959;BMP280;25639;53.634;9.880;2023-02-20T01:25:14;151025.06;;;-5.45
39959;BMP280;25639;53.634;9.880;2023-02-20T01:27:40;151022.53;;;-5.46
39959;BMP280;25639;53.634;9.880;2023-02-20T01:30:06;151006.16;;;-5.52
39959;BMP280;25639;53.634;9.880;2023-02-20T01:32:31;151020.03;;;-5.47
39959;BMP280;25639;53.634;9.880;2023-02-20T01:34:57;151032.63;;;-5.42
39959;BMP280;25639;53.634;9.880;2023-02-20T01:37:22;151032.63;;;-5.42
39959;BMP280;25639;53.634;9.880;2023-02-20T01:39:47;151055.31;;;-5.32
39959;BMP280;25639;53.634;9.880;2023-02-20T01:42:17;151031.34;;;-5.42
39959;BMP280;25639;53.634;9.880;2023-02-20T01:44:43;151025.06;;;-5.45
39959;BMP280;25639;53.634;9.880;2023-02-20T01:47:11;151045.19;;;-5.37
39959;BMP280;25639;53.634;9.880;2023-02-20T01:49:43;151047.75;;;-5.36
39959;BMP280;25639;53.634;9.880;2023-02-20T01:52:20;151064.13;;;-5.29
39959;BMP280;25639;53.634;9.880;2023-02-20T01:54:59;151056.56;;;-5.32
39959;BMP280;25639;53.634;9.880;2023-02-20T01:57:27;151046.50;;;-5.36
39959;BMP280;25639;53.634;9.880;2023-02-20T01:59:57;151056.56;;;-5.32
39959;BMP280;25639;53.634;9.880;2023-02-20T02:02:27;151059.09;;;-5.31
39959;BMP280;25639;53.634;9.880;2023-02-20T02:04:54;151069.16;;;-5.27
39959;BMP280;25639;53.634;9.880;2023-02-20T02:07:20;151076.75;;;-5.24
39959;BMP280;25639;53.634;9.880;2023-02-20T02:09:58;151072.97;;;-5.25
39959;BMP280;25639;53.634;9.880;2023-02-20T02:12:25;151093.09;;;-5.17
39959;BMP280;25639;53.634;9.880;2023-02-20T02:14:50;151105.72;;;-5.12
39959;BMP280;25639;53.634;9.880;2023-02-20T02:17:49;151105.72;;;-5.12
39959;BMP280;25639;53.634;9.880;2023-02-20T02:21:00;151118.34;;;-5.07
39959;BMP280;25639;53.634;9.880;2023-02-20T02:30:08;151120.88;;;-5.06
39959;BMP280;25639;53.634;9.880;2023-02-20T02:38:30;151138.53;;;-4.99
39959;BMP280;25639;53.634;9.880;2023-02-20T02:41:19;151144.81;;;-4.96
39959;BMP280;25639;53.634;9.880;2023-02-20T02:43:53;151148.59;;;-4.94
39959;BMP280;25639;53.634;9.880;2023-02-20T02:46:40;151151.13;;;-4.93
39959;BMP280;25639;53.634;9.880;2023-02-20T02:49:13;151159.97;;;-4.90
39959;BMP280;25639;53.634;9.880;2023-02-20T02:51:43;151153.63;;;-4.92
39959;BMP280;25639;53.634;9.880;2023-02-20T02:54:15;151142.31;;;-4.97
39959;BMP280;25639;53.634;9.880;2023-02-20T02:56:43;151141.03;;;-4.98
39959;BMP280;25639;53.634;9.880;2023-02-20T02:59:19;151143.56;;;-4.96
39959;BMP280;25639;53.634;9.880;2023-02-20T03:01:51;151157.44;;;-4.91
39959;BMP280;25639;53.634;9.880;2023-02-20T03:04:18;151154.88;;;-4.92
39959;BMP280;25639;53.634;9.880;2023-02-20T03:06:50;151153.63;;;-4.92
39959;BMP280;25639;53.634;9.880;2023-02-20T03:09:29;151171.28;;;-4.85
39959;BMP280;25639;53.634;9.880;2023-02-20T03:11:57;151141.03;;;-4.98
39959;BMP280;25639;53.634;9.880;2023-02-20T03:14:32;151143.56;;;-4.96
39959;BMP280;25639;53.634;9.880;2023-02-20T03:17:37;151146.06;;;-4.95
39959;BMP280;25639;53.634;9.880;2023-02-20T03:20:14;151153.63;;;-4.92
39959;BMP280;25639;53.634;9.880;2023-02-20T03:22:49;151166.25;;;-4.87
39959;BMP280;25639;53.634;9.880;2023-02-20T03:25:25;151146.06;;;-4.95
39959;BMP280;25639;53.634;9.880;2023-02-20T03:27:59;151166.25;;;-4.87
39959;BMP280;25639;53.634;9.880;2023-02-20T03:33:10;151172.53;;;-4.85
39959;BMP280;25639;53.634;9.880;2023-02-20T03:35:56;151165.00;;;-4.88
39959;BMP280;25639;53.634;9.880;2023-02-20T03:38:46;151165.00;;;-4.88
39959;BMP280;25639;53.634;9.880;2023-02-20T03:41:32;151196.53;;;-4.75
39959;BMP280;25639;53.634;9.880;2023-02-20T03:44:19;151180.13;;;-4.82
39959;BMP280;25639;53.634;9.880;2023-02-20T03:46:47;151181.38;;;-4.81
39959;BMP280;25639;53.634;9.880;2023-02-20T03:49:19;151183.91;;;-4.80
39959;BMP280;25639;53.634;9.880;2023-02-20T03:51:45;151193.97;;;-4.76
39959;BMP280;25639;53.634;9.880;2023-02-20T03:54:11;151183.91;;;-4.80
39959;BMP280;25639;53.634;9.880;2023-02-20T03:56:43;151193.97;;;-4.76
39959;BMP280;25639;53.634;9.880;2023-02-20T03:59:19;151196.53;;;-4.75
39959;BMP280;25639;53.634;9.880;2023-02-20T04:01:49;151202.81;;;-4.72
39959;BMP280;25639;53.634;9.880;2023-02-20T04:04:20;151223.00;;;-4.64
39959;BMP280;25639;53.634;9.880;2023-02-20T04:06:49;151219.22;;;-4.66
39959;BMP280;25639;53.634;9.880;2023-02-20T04:09:22;151245.69;;;-4.55
39959;BMP280;25639;53.634;9.880;2023-02-20T04:12:04;151217.97;;;-4.66
39959;BMP280;25639;53.634;9.880;2023-02-20T04:14:33;151211.63;;;-4.69
39959;BMP280;25639;53.634;9.880;2023-02-20T04:17:02;151199.00;;;-4.74
39959;BMP280;25639;53.634;9.880;2023-02-20T04:19:31;151199.00;;;-4.74
39959;BMP280;25639;53.634;9.880;2023-02-20T04:22:02;151207.88;;;-4.70
39959;BMP280;25639;53.634;9.880;2023-02-20T04:24:33;151205.34;;;-4.71
39959;BMP280;25639;53.634;9.880;2023-02-20T04:27:00;151197.78;;;-4.74
39959;BMP280;25639;53.634;9.880;2023-02-20T04:29:26;151202.81;;;-4.72
39959;BMP280;25639;53.634;9.880;2023-02-20T04:31:52;151206.59;;;-4.71
39959;BMP280;25639;53.634;9.880;2023-02-20T04:34:17;151211.63;;;-4.69
39959;BMP280;25639;53.634;9.880;2023-02-20T04:36:43;151199.00;;;-4.74
39959;BMP280;25639;53.634;9.880;2023-02-20T04:39:08;151200.31;;;-4.73
39959;BMP280;25639;53.634;9.880;2023-02-20T04:41:33;151197.78;;;-4.74
39959;BMP280;25639;53.634;9.880;2023-02-20T04:43:58;151182.66;;;-4.81
39959;BMP280;25639;53.634;9.880;2023-02-20T04:46:42;151197.78;;;-4.74
39959;BMP280;25639;53.634;9.880;2023-02-20T04:49:08;151199.00;;;-4.74
39959;BMP280;25639;53.634;9.880;2023-02-20T04:51:33;151206.59;;;-4.71
39959;BMP280;25639;53.634;9.880;2023-02-20T04:53:58;151212.94;;;-4.68
39959;BMP280;25639;53.634;9.880;2023-02-20T04:56:23;151212.94;;;-4.68
39959;BMP280;25639;53.634;9.880;2023-02-20T04:58:49;151217.97;;;-4.66
39959;BMP280;25639;53.634;9.880;2023-02-20T05:01:15;151200.31;;;-4.73
39959;BMP280;25639;53.634;9.880;2023-02-20T05:03:40;151220.47;;;-4.65
39959;BMP280;25639;53.634;9.880;2023-02-20T05:06:05;151220.47;;;-4.65
39959;BMP280;25639;53.634;9.880;2023-02-20T05:08:31;151226.78;;;-4.63
39959;BMP280;25639;53.634;9.880;2023-02-20T05:10:56;151230.59;;;-4.61
39959;BMP280;25639;53.634;9.880;2023-02-20T05:13:22;151229.28;;;-4.62
39959;BMP280;25639;53.634;9.880;2023-02-20T05:15:47;151238.13;;;-4.58
39959;BMP280;25639;53.634;9.880;2023-02-20T05:18:12;151248.25;;;-4.54
39959;BMP280;25639;53.634;9.880;2023-02-20T05:20:38;151264.59;;;-4.47
39959;BMP280;25639;53.634;9.880;2023-02-20T05:23:21;151255.78;;;-4.51
39959;BMP280;25639;53.634;9.880;2023-02-20T05:25:47;151263.34;;;-4.48
39959;BMP280;25639;53.634;9.880;2023-02-20T05:28:13;151260.88;;;-4.49
39959;BMP280;25639;53.634;9.880;2023-02-20T05:30:38;151258.31;;;-4.50
39959;BMP280;25639;53.634;9.880;2023-02-20T05:33:03;151262.13;;;-4.48
39959;BMP280;25639;53.634;9.880;2023-02-20T05:35:29;151264.59;;;-4.47
39959;BMP280;25639;53.634;9.880;2023-02-20T05:37:54;151267.16;;;-4.46
39959;BMP280;25639;53.634;9.880;2023-02-20T05:40:19;151270.94;;;-4.45
39959;BMP280;25639;53.634;9.880;2023-02-20T05:42:44;151260.88;;;-4.49
39959;BMP280;25639;53.634;9.880;2023-02-20T05:45:10;151267.16;;;-4.46
39959;BMP280;25639;53.634;9.880;2023-02-20T05:47:36;151273.44;;;-4.44
39959;BMP280;25639;53.634;9.880;2023-02-20T05:50:03;151268.41;;;-4.46
39959;BMP280;25639;53.634;9.880;2023-02-20T05:52:28;151272.19;;;-4.44
39959;BMP280;25639;53.634;9.880;2023-02-20T05:54:54;151265.91;;;-4.47
39959;BMP280;25639;53.634;9.880;2023-02-20T05:57:19;151268.41;;;-4.46
39959;BMP280;25639;53.634;9.880;2023-02-20T05:59:44;151278.53;;;-4.42
39959;BMP280;25639;53.634;9.880;2023-02-20T06:02:09;151278.53;;;-4.42
39959;BMP280;25639;53.634;9.880;2023-02-20T06:04:35;151281.03;;;-4.41
39959;BMP280;25639;53.634;9.880;2023-02-20T06:07:00;151292.41;;;-4.36
39959;BMP280;25639;53.634;9.880;2023-02-20T06:09:25;151288.59;;;-4.37
39959;BMP280;25639;53.634;9.880;2023-02-20T06:11:53;151286.06;;;-4.38
39959;BMP280;25639;53.634;9.880;2023-02-20T06:14:20;151279.78;;;-4.41
39959;BMP280;25639;53.634;9.880;2023-02-20T06:16:46;151288.59;;;-4.37
39959;BMP280;25639;53.634;9.880;2023-02-20T06:19:17;151281.03;;;-4.41
39959;BMP280;25639;53.634;9.880;2023-02-20T06:21:45;151282.28;;;-4.40
39959;BMP280;25639;53.634;9.880;2023-02-20T06:24:10;151267.16;;;-4.46
39959;BMP280;25639;53.634;9.880;2023-02-20T06:26:38;151270.94;;;-4.45
39959;BMP280;25639;53.634;9.880;2023-02-20T06:29:04;151287.34;;;-4.38
39959;BMP280;25639;53.634;9.880;2023-02-20T06:31:29;151308.75;;;-4.29
39959;BMP280;25639;53.634;9.880;2023-02-20T06:33:54;151305.00;;;-4.31
39959;BMP280;25639;53.634;9.880;2023-02-20T06:36:26;151316.34;;;-4.26
39959;BMP280;25639;53.634;9.880;2023-02-20T06:38:52;151332.75;;;-4.19
39959;BMP280;25639;53.634;9.880;2023-02-20T06:41:17;151325.19;;;-4.23
39959;BMP280;25639;53.634;9.880;2023-02-20T06:43:43;151337.78;;;-4.17
39959;BMP280;25639;53.634;9.880;2023-02-20T06:46:08;151352.97;;;-4.11
39959;BMP280;25639;53.634;9.880;2023-02-20T06:48:33;151339.03;;;-4.17
39959;BMP280;25639;53.634;9.880;2023-02-20T06:50:58;151358.00;;;-4.09
39959;BMP280;25639;53.634;9.880;2023-02-20T06:53:24;151363.03;;;-4.07
39959;BMP280;25639;53.634;9.880;2023-02-20T06:55:49;151369.34;;;-4.05
39959;BMP280;25639;53.634;9.880;2023-02-20T06:58:14;151363.03;;;-4.07
39959;BMP280;25639;53.634;9.880;2023-02-20T07:00:39;151374.38;;;-4.03
39959;BMP280;25639;53.634;9.880;2023-02-20T07:03:05;151379.47;;;-4.00
39959;BMP280;25639;53.634;9.880;2023-02-20T07:05:30;151374.38;;;-4.03
39959;BMP280;25639;53.634;9.880;2023-02-20T07:07:55;151383.22;;;-3.99
39959;BMP280;25639;53.634;9.880;2023-02-20T07:10:20;151378.16;;;-4.01
39959;BMP280;25639;53.634;9.880;2023-02-20T07:12:46;151380.72;;;-4.00
39959;BMP280;25639;53.634;9.880;2023-02-20T07:15:12;151393.34;;;-3.95
39959;BMP280;25639;53.634;9.880;2023-02-20T07:17:37;151402.16;;;-3.91
39959;BMP280;25639;53.634;9.880;2023-02-20T07:20:03;151398.38;;;-3.93
39959;BMP280;25639;53.634;9.880;2023-02-20T07:22:29;151407.22;;;-3.89
39959;BMP280;25639;53.634;9.880;2023-02-20T07:24:54;151424.88;;;-3.82
39959;BMP280;25639;53.634;9.880;2023-02-20T07:27:20;151438.75;;;-3.76
39959;BMP280;25639;53.634;9.880;2023-02-20T07:29:47;151427.38;;;-3.81
39959;BMP280;25639;53.634;9.880;2023-02-20T07:32:13;151432.47;;;-3.79
39959;BMP280;25639;53.634;9.880;2023-02-20T07:34:39;151441.28;;;-3.75
39959;BMP280;25639;53.634;9.880;2023-02-20T07:37:04;151443.78;;;-3.74
39959;BMP280;25639;53.634;9.880;2023-02-20T07:39:29;151448.84;;;-3.72
39959;BMP280;25639;53.634;9.880;2023-02-20T07:41:55;151450.13;;;-3.72
39959;BMP280;25639;53.634;9.880;2023-02-20T07:44:20;151451.38;;;-3.71
39959;BMP280;25639;53.634;9.880;2023-02-20T07:46:45;151434.97;;;-3.78
39959;BMP280;25639;53.634;9.880;2023-02-20T07:49:10;151451.38;;;-3.71
39959;BMP280;25639;53.634;9.880;2023-02-20T07:51:36;151453.88;;;-3.70
39959;BMP280;25639;53.634;9.880;2023-02-20T07:54:01;151440.00;;;-3.76
39959;BMP280;25639;53.634;9.880;2023-02-20T07:56:26;151446.34;;;-3.73
39959;BMP280;25639;53.634;9.880;2023-02-20T07:58:52;151456.41;;;-3.69
39959;BMP280;25639;53.634;9.880;2023-02-20T08:01:18;151456.41;;;-3.69
39959;BMP280;25639;53.634;9.880;2023-02-20T08:03:44;151461.47;;;-3.67
39959;BMP280;25639;53.634;9.880;2023-02-20T08:06:10;151456.41;;;-3.69
39959;BMP280;25639;53.634;9.880;2023-02-20T08:08:35;151458.97;;;-3.68
39959;BMP280;25639;53.634;9.880;2023-02-20T08:11:00;151464.00;;;-3.66
39959;BMP280;25639;53.634;9.880;2023-02-20T08:13:26;151482.94;;;-3.58
39959;BMP280;25639;53.634;9.880;2023-02-20T08:15:51;151469.06;;;-3.64
39959;BMP280;25639;53.634;9.880;2023-02-20T08:18:16;151486.72;;;-3.57
39959;BMP280;25639;53.634;9.880;2023-02-20T08:20:42;151511.97;;;-3.47
39959;BMP280;25639;53.634;9.880;2023-02-20T08:23:18;151519.53;;;-3.43
39959;BMP280;25639;53.634;9.880;2023-02-20T08:25:44;151546.03;;;-3.33
39959;BMP280;25639;53.634;9.880;2023-02-20T08:28:09;151543.53;;;-3.34
39959;BMP280;25639;53.634;9.880;2023-02-20T08:30:35;151542.28;;;-3.34
39959;BMP280;25639;53.634;9.880;2023-02-20T08:33:00;151549.81;;;-3.31
39959;BMP280;25639;53.634;9.880;2023-02-20T08:35:30;151544.78;;;-3.33
39959;BMP280;25639;53.634;9.880;2023-02-20T08:37:55;151551.13;;;-3.31
39959;BMP280;25639;53.634;9.880;2023-02-20T08:40:21;151554.88;;;-3.29
39959;BMP280;25639;53.634;9.880;2023-02-20T08:42:49;151575.09;;;-3.21
39959;BMP280;25639;53.634;9.880;2023-02-20T08:45:15;151568.81;;;-3.23
39959;BMP280;25639;53.634;9.880;2023-02-20T08:47:40;151563.72;;;-3.26
39959;BMP280;25639;53.634;9.880;2023-02-20T08:50:05;151577.63;;;-3.20
39959;BMP280;25639;53.634;9.880;2023-02-20T08:52:30;151581.38;;;-3.18
39959;BMP280;25639;53.634;9.880;2023-02-20T08:54:56;151592.78;;;-3.14
39959;BMP280;25639;53.634;9.880;2023-02-20T08:57:21;151588.97;;;-3.15
39959;BMP280;25639;53.634;9.880;2023-02-20T08:59:46;151586.47;;;-3.16
39959;BMP280;25639;53.634;9.880;2023-02-20T09:02:20;151605.41;;;-3.09
39959;BMP280;25639;53.634;9.880;2023-02-20T09:04:46;151609.19;;;-3.07
39959;BMP280;25639;53.634;9.880;2023-02-20T09:07:13;151611.69;;;-3.06
39959;BMP280;25639;53.634;9.880;2023-02-20T09:09:38;151613.00;;;-3.05
39959;BMP280;25639;53.634;9.880;2023-02-20T09:12:05;151594.03;;;-3.13
39959;BMP280;25639;53.634;9.880;2023-02-20T09:14:31;151600.34;;;-3.11
39959;BMP280;25639;53.634;9.880;2023-02-20T09:16:56;151609.19;;;-3.07
39959;BMP280;25639;53.634;9.880;2023-02-20T09:19:22;151616.78;;;-3.04
39959;BMP280;25639;53.634;9.880;2023-02-20T09:21:49;151611.69;;;-3.06
39959;BMP280;25639;53.634;9.880;2023-02-20T09:24:16;151628.13;;;-2.99
39959;BMP280;25639;53.634;9.880;2023-02-20T09:26:42;151621.84;;;-3.02
39959;BMP280;25639;53.634;9.880;2023-02-20T09:29:07;151633.19;;;-2.97
39959;BMP280;25639;53.634;9.880;2023-02-20T09:31:32;151619.28;;;-3.03
39959;BMP280;25639;53.634;9.880;2023-02-20T09:33:58;151623.09;;;-3.01
39959;BMP280;25639;53.634;9.880;2023-02-20T09:36:25;151626.88;;;-3.00
39959;BMP280;25639;53.634;9.880;2023-02-20T09:38:50;151626.88;;;-3.00
39959;BMP280;25639;53.634;9.880;2023-02-20T09:41:33;151630.69;;;-2.98
39959;BMP280;25639;53.634;9.880;2023-02-20T09:44:20;151648.34;;;-2.91
39959;BMP280;25639;53.634;9.880;2023-02-20T09:46:50;151650.84;;;-2.90
39959;BMP280;25639;53.634;9.880;2023-02-20T09:49:20;151653.41;;;-2.89
39959;BMP280;25639;53.634;9.880;2023-02-20T09:51:59;151671.09;;;-2.82
39959;BMP280;25639;53.634;9.880;2023-02-20T09:54:38;151692.56;;;-2.73
39959;BMP280;25639;53.634;9.880;2023-02-20T09:57:09;151691.25;;;-2.74
39959;BMP280;25639;53.634;9.880;2023-02-20T09:59:40;151702.66;;;-2.69
39959;BMP280;25639;53.634;9.880;2023-02-20T10:02:20;151707.69;;;-2.67
39959;BMP280;25639;53.634;9.880;2023-02-20T10:04:49;151716.53;;;-2.63
39959;BMP280;25639;53.634;9.880;2023-02-20T10:09:49;151719.09;;;-2.62
39959;BMP280;25639;53.634;9.880;2023-02-20T10:12:44;151732.97;;;-2.57
39959;BMP280;25639;53.634;9.880;2023-02-20T10:15:19;151749.41;;;-2.50
39959;BMP280;25639;53.634;9.880;2023-02-20T10:20:55;151760.75;;;-2.45
39959;BMP280;25639;53.634;9.880;2023-02-20T10:23:35;151753.22;;;-2.48
39959;BMP280;25639;53.634;9.880;2023-02-20T10:26:06;151768.34;;;-2.42
39959;BMP280;25639;53.634;9.880;2023-02-20T10:28:34;151775.94;;;-2.39
39959;BMP280;25639;53.634;9.880;2023-02-20T10:31:08;151789.84;;;-2.34
39959;BMP280;25639;53.634;9.880;2023-02-20T10:33:46;151784.78;;;-2.36
39959;BMP280;25639;53.634;9.880;2023-02-20T10:36:25;151787.28;;;-2.35
39959;BMP280;25639;53.634;9.880;2023-02-20T10:38:57;151801.19;;;-2.29
39959;BMP280;25639;53.634;9.880;2023-02-20T10:46:39;151829.00;;;-2.18
39959;BMP280;25639;53.634;9.880;2023-02-20T10:49:14;151854.31;;;-2.07
39959;BMP280;25639;53.634;9.880;2023-02-20T10:51:45;151836.56;;;-2.15
39959;BMP280;25639;53.634;9.880;2023-02-20T10:54:39;151837.84;;;-2.14
39959;BMP280;25639;53.634;9.880;2023-02-20T10:57:19;151858.06;;;-2.06
39959;BMP280;25639;53.634;9.880;2023-02-20T11:00:02;151863.16;;;-2.04
39959;BMP280;25639;53.634;9.880;2023-02-20T11:02:32;151858.06;;;-2.06
39959;BMP280;25639;53.634;9.880;2023-02-20T11:05:06;151850.50;;;-2.09
39959;BMP280;25639;53.634;9.880;2023-02-20T11:07:32;151841.66;;;-2.13
39959;BMP280;25639;53.634;9.880;2023-02-20T11:09:57;151839.09;;;-2.14
39959;BMP280;25639;53.634;9.880;2023-02-20T11:12:28;151851.75;;;-2.08
39959;BMP280;25639;53.634;9.880;2023-02-20T11:14:59;151849.19;;;-2.09
39959;BMP280;25639;53.634;9.880;2023-02-20T11:17:29;151854.31;;;-2.07
39959;BMP280;25639;53.634;9.880;2023-02-20T11:19:56;151856.81;;;-2.06
39959;BMP280;25639;53.634;9.880;2023-02-20T11:22:45;151877.03;;;-1.98
39959;BMP280;25639;53.634;9.880;2023-02-20T11:25:18;151878.28;;;-1.98
39959;BMP280;25639;53.634;9.880;2023-02-20T11:27:46;151894.75;;;-1.91
39959;BMP280;25639;53.634;9.880;2023-02-20T11:30:27;151888.38;;;-1.94
39959;BMP280;25639;53.634;9.880;2023-02-20T11:33:13;151906.09;;;-1.86
39959;BMP280;25639;53.634;9.880;2023-02-20T11:35:44;151916.22;;;-1.82
39959;BMP280;25639;53.634;9.880;2023-02-20T11:40:39;151909.88;;;-1.85
39959;BMP280;25639;53.634;9.880;2023-02-20T11:43:21;151932.63;;;-1.76
39959;BMP280;25639;53.634;9.880;2023-02-20T11:45:48;151949.06;;;-1.69
39959;BMP280;25639;53.634;9.880;2023-02-20T11:48:19;151955.38;;;-1.66
39959;BMP280;25639;53.634;9.880;2023-02-20T11:50:49;151965.53;;;-1.62
39959;BMP280;25639;53.634;9.880;2023-02-20T11:56:08;151970.56;;;-1.60
39959;BMP280;25639;53.634;9.880;2023-02-20T11:58:33;151989.53;;;-1.52
39959;BMP280;25639;53.634;9.880;2023-02-20T12:00:59;151994.56;;;-1.50
39959;BMP280;25639;53.634;9.880;2023-02-20T12:03:30;151998.38;;;-1.49
39959;BMP280;25639;53.634;9.880;2023-02-20T12:05:58;152012.28;;;-1.43
39959;BMP280;25639;53.634;9.880;2023-02-20T12:08:39;152012.28;;;-1.43
39959;BMP280;25639;53.634;9.880;2023-02-20T12:11:12;152011.03;;;-1.44
39959;BMP280;25639;53.634;9.880;2023-02-20T12:13:40;152021.13;;;-1.40
39959;BMP280;25639;53.634;9.880;2023-02-20T12:19:02;152040.13;;;-1.32
39959;BMP280;25639;53.634;9.880;2023-02-20T12:21:48;152041.38;;;-1.31
39959;BMP280;25639;53.634;9.880;2023-02-20T12:24:40;152048.97;;;-1.28
39959;BMP280;25639;53.634;9.880;2023-02-20T12:35:54;152032.53;;;-1.35
39959;BMP280;25639;53.634;9.880;2023-02-20T12:41:18;152055.28;;;-1.26
39959;BMP280;25639;53.634;9.880;2023-02-20T12:44:10;152041.38;;;-1.31
39959;BMP280;25639;53.634;9.880;2023-02-20T12:47:21;152047.69;;;-1.29
39959;BMP280;25639;53.634;9.880;2023-02-20T12:52:39;152059.09;;;-1.24
39959;BMP280;25639;53.634;9.880;2023-02-20T12:58:20;152064.13;;;-1.22
39959;BMP280;25639;53.634;9.880;2023-02-20T13:00:52;152056.53;;;-1.25
39959;BMP280;25639;53.634;9.880;2023-02-20T13:03:34;152054.03;;;-1.26
39959;BMP280;25639;53.634;9.880;2023-02-20T13:06:01;152051.47;;;-1.27
39959;BMP280;25639;53.634;9.880;2023-02-20T13:08:32;152047.69;;;-1.29
39959;BMP280;25639;53.634;9.880;2023-02-20T13:11:05;152057.81;;;-1.25
39959;BMP280;25639;53.634;9.880;2023-02-20T13:13:48;152057.81;;;-1.25
39959;BMP280;25639;53.634;9.880;2023-02-20T13:18:51;152057.81;;;-1.25
39959;BMP280;25639;53.634;9.880;2023-02-20T13:21:22;152060.34;;;-1.24
39959;BMP280;25639;53.634;9.880;2023-02-20T13:23:48;152055.28;;;-1.26
39959;BMP280;25639;53.634;9.880;2023-02-20T13:29:13;152032.53;;;-1.35
39959;BMP280;25639;53.634;9.880;2023-02-20T13:36:43;152041.38;;;-1.31
39959;BMP280;25639;53.634;9.880;2023-02-20T13:57:54;152059.09;;;-1.24
39959;BMP280;25639;53.634;9.880;2023-02-20T14:00:26;152055.28;;;-1.26
39959;BMP280;25639;53.634;9.880;2023-02-20T14:02:52;152062.88;;;-1.23
39959;BMP280;25639;53.634;9.880;2023-02-20T14:05:27;152079.34;;;-1.16
39959;BMP280;25639;53.634;9.880;2023-02-20T14:07:54;152067.94;;;-1.21
39959;BMP280;25639;53.634;9.880;2023-02-20T14:10:29;152079.34;;;-1.16
39959;BMP280;25639;53.634;9.880;2023-02-20T14:13:10;152081.84;;;-1.15
39959;BMP280;25639;53.634;9.880;2023-02-20T14:15:47;152076.78;;;-1.17
39959;BMP280;25639;53.634;9.880;2023-02-20T14:18:20;152070.47;;;-1.20
39959;BMP280;25639;53.634;9.880;2023-02-20T14:20:48;152075.53;;;-1.18
39959;BMP280;25639;53.634;9.880;2023-02-20T14:23:23;152064.13;;;-1.22
39959;BMP280;25639;53.634;9.880;2023-02-20T14:25:58;152070.47;;;-1.20
39959;BMP280;25639;53.634;9.880;2023-02-20T14:28:28;152084.38;;;-1.14
39959;BMP280;25639;53.634;9.880;2023-02-20T14:31:21;152071.72;;;-1.19
39959;BMP280;25639;53.634;9.880;2023-02-20T14:33:49;152085.63;;;-1.13
39959;BMP280;25639;53.634;9.880;2023-02-20T14:42:21;152093.25;;;-1.10
39959;BMP280;25639;53.634;9.880;2023-02-20T14:44:49;152094.50;;;-1.10
39959;BMP280;25639;53.634;9.880;2023-02-20T14:47:16;152105.91;;;-1.05
39959;BMP280;25639;53.634;9.880;2023-02-20T14:49:43;152099.53;;;-1.08
39959;BMP280;25639;53.634;9.880;2023-02-20T14:54:33;152100.78;;;-1.07
39959;BMP280;25639;53.634;9.880;2023-02-20T14:56:59;152108.41;;;-1.04
39959;BMP280;25639;53.634;9.880;2023-02-20T14:59:29;152119.81;;;-1.00
39959;BMP280;25639;53.634;9.880;2023-02-20T15:02:25;152114.75;;;-1.02
39959;BMP280;25639;53.634;9.880;2023-02-20T15:04:52;152117.25;;;-1.01
39959;BMP280;25639;53.634;9.880;2023-02-20T15:07:20;152102.09;;;-1.07
39959;BMP280;25639;53.634;9.880;2023-02-20T15:09:48;152121.06;;;-0.99
39959;BMP280;25639;53.634;9.880;2023-02-20T15:12:25;152109.69;;;-1.04
39959;BMP280;25639;53.634;9.880;2023-02-20T15:17:43;152099.53;;;-1.08
39959;BMP280;25639;53.634;9.880;2023-02-20T15:20:36;152066.69;;;-1.21
39959;BMP280;25639;53.634;9.880;2023-02-20T15:25:45;152031.28;;;-1.36
39959;BMP280;25639;53.634;9.880;2023-02-20T15:28:22;152011.03;;;-1.44
39959;BMP280;25639;53.634;9.880;2023-02-20T15:33:37;151993.31;;;-1.51
39959;BMP280;25639;53.634;9.880;2023-02-20T15:36:04;151983.22;;;-1.55
39959;BMP280;25639;53.634;9.880;2023-02-20T15:38:32;151968.03;;;-1.61
39959;BMP280;25639;53.634;9.880;2023-02-20T15:40:59;151961.72;;;-1.64
39959;BMP280;25639;53.634;9.880;2023-02-20T15:43:25;151942.78;;;-1.71
39959;BMP280;25639;53.634;9.880;2023-02-20T15:45:51;151942.78;;;-1.71
39959;BMP280;25639;53.634;9.880;2023-02-20T15:48:16;151944.03;;;-1.71